This is the latest recevied weather packets stored in our database for station/object OK2ILA-14. If no packets are shown the sender has not sent any weather packets the latest 10 day(s).
| Time | Temp. | Humidity | Pressure | Rain* | Wind** | Luminosity | Snow |
|---|---|---|---|---|---|---|---|
| 1777580059 | 3.89° C | 67% | 1027.4 hPa | - | - | - | - |
| 1777579459 | 5° C | 64% | 1027.5 hPa | - | - | - | - |
| 1777578851 | 5° C | 62% | 1027.4 hPa | - | - | - | - |
| 1777578251 | 6.11° C | 58% | 1027.4 hPa | - | - | - | - |
| 1777577651 | 6.67° C | 55% | 1027.3 hPa | - | - | - | - |
| 1777577051 | 6.67° C | 55% | 1027.2 hPa | - | - | - | - |
| 1777576458 | 7.22° C | 52% | 1027.1 hPa | - | - | - | - |
| 1777575851 | 8.33° C | 45% | 1027 hPa | - | - | - | - |
| 1777575251 | 8.89° C | 44% | 1026.9 hPa | - | - | - | - |
| 1777574658 | 9.44° C | 42% | 1026.8 hPa | - | - | - | - |
| 1777574050 | 10° C | 42% | 1026.8 hPa | - | - | - | - |
| 1777573450 | 10° C | 41% | 1026.7 hPa | - | - | - | - |
| 1777572850 | 10.56° C | 40% | 1026.7 hPa | - | - | - | - |
| 1777572250 | 11.11° C | 38% | 1026.6 hPa | - | - | - | - |
| 1777571650 | 12.22° C | 35% | 1026.5 hPa | - | - | - | - |
| 1777571050 | 13.33° C | 32% | 1026.5 hPa | - | - | - | - |
| 1777570449 | 15.56° C | 30% | 1026.3 hPa | - | - | - | - |
| 1777569849 | 16.11° C | 29% | 1026.4 hPa | - | - | - | - |
| 1777569249 | 15.56° C | 29% | 1026.4 hPa | - | - | - | - |
| 1777568649 | 15° C | 29% | 1026.4 hPa | - | - | - | - |
| 1777568049 | 15° C | 29% | 1026.4 hPa | - | - | - | - |
| 1777567449 | 14.44° C | 29% | 1026.4 hPa | - | - | - | - |
| 1777566849 | 15° C | 28% | 1026.4 hPa | - | - | - | - |
| 1777566248 | 16.11° C | 25% | 1026.4 hPa | - | - | - | - |
| 1777565648 | 17.78° C | 24% | 1026.4 hPa | - | - | - | - |
* Rain since midnight (hover to see other rain measurements)
** Current wind speed in m/s (hover to see current wind gust speed)